Time;durP1;ratioP1;P1;durP2;ratioP2;P2;SDS_P1;SDS_P2;PMS_P1;PMS_P2;Temp;Humidity;BMP_temperature;BMP_pressure;BME280_temperature;BME280_humidity;BME280_pressure;Samples;Min_cycle;Max_cycle;Signal;HPM_P1;HPM_P2
2023/05/12 02:01:07;;;;;;;6.45;2.55;;;;;;;;;;4795662;27;20070;-75
2023/05/12 02:03:33;;;;;;;9.95;2.60;;;;;;;;;;4292488;33;20070;-75
2023/05/12 02:05:59;;;;;;;5.28;2.60;;;;;;;;;;4288697;33;20367;-81
2023/05/12 02:08:25;;;;;;;9.38;2.92;;;;;;;;;;4277790;33;20625;-74
2023/05/12 02:11:03;;;;;;;5.78;3.10;;;;;;;;;;4279568;33;20498;-75
2023/05/12 02:13:29;;;;;;;4.12;2.70;;;;;;;;;;4279975;33;20083;-75
2023/05/12 02:15:56;;;;;;;10.40;3.70;;;;;;;;;;4278365;33;20075;-76
2023/05/12 02:18:22;;;;;;;3.22;2.55;;;;;;;;;;4308039;33;20046;-74
2023/05/12 02:20:48;;;;;;;9.63;3.40;;;;;;;;;;4311185;33;20062;-75
2023/05/12 02:23:15;;;;;;;4.87;2.87;;;;;;;;;;4311323;33;20099;-74
2023/05/12 02:25:41;;;;;;;5.15;3.05;;;;;;;;;;4311052;33;20093;-74
2023/05/12 02:28:09;;;;;;;4.47;2.80;;;;;;;;;;4296018;33;20123;-80
2023/05/12 02:30:37;;;;;;;8.32;3.25;;;;;;;;;;4296723;33;20103;-74
2023/05/12 02:33:04;;;;;;;8.93;2.67;;;;;;;;;;4293889;33;20083;-74
2023/05/12 02:35:30;;;;;;;12.80;2.65;;;;;;;;;;4294710;33;20555;-74
2023/05/12 02:37:57;;;;;;;10.57;4.00;;;;;;;;;;4296200;33;20070;-83
2023/05/12 02:40:23;;;;;;;3.83;2.72;;;;;;;;;;4295744;33;20487;-74
2023/05/12 02:42:49;;;;;;;8.43;3.28;;;;;;;;;;4295472;33;20102;-75
2023/05/12 02:45:15;;;;;;;10.38;3.47;;;;;;;;;;4296358;33;20104;-76
2023/05/12 02:47:41;;;;;;;6.55;2.72;;;;;;;;;;4296257;33;20071;-76
2023/05/12 02:50:08;;;;;;;6.80;2.78;;;;;;;;;;4294649;33;20037;-84
2023/05/12 02:52:34;;;;;;;11.50;2.70;;;;;;;;;;4289951;33;20506;-73
2023/05/12 02:55:00;;;;;;;5.97;2.83;;;;;;;;;;4281963;33;20037;-74
2023/05/12 02:57:32;;;;;;;5.43;3.17;;;;;;;;;;4283263;33;20100;-76
2023/05/12 03:00:04;;;;;;;7.33;2.93;;;;;;;;;;4264600;33;20464;-78
2023/05/12 03:02:33;;;;;;;3.30;2.47;;;;;;;;;;4267285;33;20061;-75
2023/05/12 03:05:05;;;;;;;10.70;3.12;;;;;;;;;;4254688;33;20034;-74
2023/05/12 03:07:32;;;;;;;19.83;3.33;;;;;;;;;;4265836;33;20057;-75
2023/05/12 03:09:58;;;;;;;3.25;2.35;;;;;;;;;;4266353;33;20101;-76
2023/05/12 03:12:24;;;;;;;8.55;2.90;;;;;;;;;;4267773;33;20818;-75
2023/05/12 03:14:51;;;;;;;5.62;2.83;;;;;;;;;;4277050;33;20118;-74
2023/05/12 03:17:17;;;;;;;9.45;2.78;;;;;;;;;;4279574;33;20053;-77
2023/05/12 03:19:43;;;;;;;6.80;2.80;;;;;;;;;;4268104;33;20176;-84
2023/05/12 03:22:09;;;;;;;6.60;2.80;;;;;;;;;;4264700;33;20083;-74
2023/05/12 03:24:35;;;;;;;7.50;3.20;;;;;;;;;;4267127;33;20069;-74
2023/05/12 03:27:01;;;;;;;8.95;2.85;;;;;;;;;;4266480;33;20063;-74
2023/05/12 03:29:28;;;;;;;3.97;2.47;;;;;;;;;;4266802;33;20104;-73
2023/05/12 03:31:54;;;;;;;4.25;2.80;;;;;;;;;;4280189;33;20419;-83
2023/05/12 03:34:20;;;;;;;6.15;2.80;;;;;;;;;;4279892;33;20041;-74
2023/05/12 03:36:47;;;;;;;4.35;2.80;;;;;;;;;;4284004;33;20049;-73
2023/05/12 03:39:13;;;;;;;7.07;2.58;;;;;;;;;;4279530;33;20140;-73
2023/05/12 03:41:39;;;;;;;7.87;2.85;;;;;;;;;;4280190;33;20041;-73
2023/05/12 03:44:07;;;;;;;3.67;2.67;;;;;;;;;;4266146;33;20065;-82
2023/05/12 03:46:33;;;;;;;19.25;3.95;;;;;;;;;;4265979;33;20065;-74
2023/05/12 03:48:59;;;;;;;4.55;2.97;;;;;;;;;;4267033;33;20211;-72
2023/05/12 03:51:29;;;;;;;5.32;3.45;;;;;;;;;;4266612;33;20042;-74
2023/05/12 03:53:55;;;;;;;13.38;3.12;;;;;;;;;;4266085;33;20045;-75
2023/05/12 03:56:21;;;;;;;5.95;2.60;;;;;;;;;;4263216;33;20053;-74
2023/05/12 03:58:48;;;;;;;9.25;3.40;;;;;;;;;;4267017;33;20076;-73
2023/05/12 04:01:15;;;;;;;5.95;3.20;;;;;;;;;;4265670;33;20054;-73
2023/05/12 04:03:42;;;;;;;6.00;2.92;;;;;;;;;;4255480;33;20409;-76
2023/05/12 04:06:08;;;;;;;4.40;3.45;;;;;;;;;;4236047;33;20063;-75
2023/05/12 04:08:35;;;;;;;3.65;3.28;;;;;;;;;;4237898;33;20203;-74
2023/05/12 04:11:02;;;;;;;10.95;2.42;;;;;;;;;;4238344;33;20046;-74
2023/05/12 04:13:29;;;;;;;3.92;2.80;;;;;;;;;;4238195;33;20047;-74
2023/05/12 04:15:56;;;;;;;10.75;2.92;;;;;;;;;;4251528;33;20079;-75
2023/05/12 04:18:23;;;;;;;4.03;3.00;;;;;;;;;;4250872;33;20210;-74
2023/05/12 04:20:49;;;;;;;5.05;2.15;;;;;;;;;;4265002;33;20076;-75
2023/05/12 04:23:15;;;;;;;5.22;3.33;;;;;;;;;;4259424;33;20050;-76
2023/05/12 04:25:42;;;;;;;7.05;2.92;;;;;;;;;;4256733;33;20056;-73
2023/05/12 04:28:08;;;;;;;10.93;2.78;;;;;;;;;;4251002;33;20421;-76
2023/05/12 04:30:36;;;;;;;16.12;5.55;;;;;;;;;;4252284;33;21066;-74
2023/05/12 04:33:03;;;;;;;10.98;2.97;;;;;;;;;;4256570;33;20038;-75
2023/05/12 04:35:29;;;;;;;5.32;3.05;;;;;;;;;;4257861;33;20082;-76
2023/05/12 04:37:55;;;;;;;8.55;2.90;;;;;;;;;;4286253;33;20059;-76
2023/05/12 04:40:22;;;;;;;3.97;3.28;;;;;;;;;;4277118;33;20053;-75
2023/05/12 04:42:49;;;;;;;4.35;2.62;;;;;;;;;;4250098;33;20365;-74
2023/05/12 04:45:15;;;;;;;6.80;2.92;;;;;;;;;;4252022;33;20045;-75
2023/05/12 04:47:42;;;;;;;16.75;3.45;;;;;;;;;;4250551;33;20076;-76
2023/05/12 04:50:09;;;;;;;5.70;3.00;;;;;;;;;;4249989;33;20053;-80
2023/05/12 04:52:35;;;;;;;4.32;2.87;;;;;;;;;;4238477;33;20103;-75
2023/05/12 04:55:02;;;;;;;8.05;2.50;;;;;;;;;;4223730;33;20224;-75
2023/05/12 04:57:28;;;;;;;3.67;2.35;;;;;;;;;;4223078;34;20057;-74
2023/05/12 04:59:55;;;;;;;6.25;3.22;;;;;;;;;;4222548;33;20054;-77
2023/05/12 05:02:21;;;;;;;8.75;3.05;;;;;;;;;;4220927;33;20051;-75
2023/05/12 05:04:48;;;;;;;2.95;2.65;;;;;;;;;;4223552;34;20058;-75
2023/05/12 05:07:14;;;;;;;2.65;2.45;;;;;;;;;;4235315;33;20053;-74
2023/05/12 05:09:41;;;;;;;4.55;3.62;;;;;;;;;;4235487;33;20684;-74
2023/05/12 05:12:07;;;;;;;9.65;2.83;;;;;;;;;;4229498;33;20046;-78
2023/05/12 05:14:34;;;;;;;6.12;3.10;;;;;;;;;;4246006;33;20050;-75
2023/05/12 05:17:01;;;;;;;8.90;2.60;;;;;;;;;;4250967;33;20115;-74
2023/05/12 05:19:28;;;;;;;3.42;2.75;;;;;;;;;;4250117;33;20072;-75
2023/05/12 05:21:54;;;;;;;4.65;2.90;;;;;;;;;;4253577;33;20120;-75
2023/05/12 05:24:20;;;;;;;5.78;3.33;;;;;;;;;;4248861;33;20074;-74
2023/05/12 05:26:46;;;;;;;9.80;2.80;;;;;;;;;;4254003;33;20041;-76
2023/05/12 05:29:12;;;;;;;11.43;3.30;;;;;;;;;;4250468;33;20057;-73
2023/05/12 05:31:39;;;;;;;6.68;3.20;;;;;;;;;;4251228;33;20515;-74
2023/05/12 05:34:05;;;;;;;5.35;2.47;;;;;;;;;;4255537;33;20554;-79
2023/05/12 05:36:31;;;;;;;5.57;2.70;;;;;;;;;;4255834;33;20081;-74
2023/05/12 05:38:58;;;;;;;7.55;2.72;;;;;;;;;;4262001;33;20075;-74
2023/05/12 05:41:24;;;;;;;11.38;2.62;;;;;;;;;;4249949;33;20505;-74
2023/05/12 05:43:51;;;;;;;3.20;2.92;;;;;;;;;;4240396;33;20527;-75
2023/05/12 05:46:17;;;;;;;14.02;3.87;;;;;;;;;;4238014;33;20034;-77
2023/05/12 05:48:44;;;;;;;7.55;3.12;;;;;;;;;;4232455;33;20050;-74
2023/05/12 05:51:10;;;;;;;5.80;2.70;;;;;;;;;;4242779;33;20107;-75
2023/05/12 05:53:37;;;;;;;6.18;2.58;;;;;;;;;;4231997;33;20064;-73
2023/05/12 05:56:03;;;;;;;8.65;3.58;;;;;;;;;;4247446;33;20496;-74
2023/05/12 05:58:29;;;;;;;8.57;2.40;;;;;;;;;;4211150;34;20036;-78
2023/05/12 06:00:59;;;;;;;5.90;3.10;;;;;;;;;;4212798;33;20062;-73
2023/05/12 06:03:26;;;;;;;6.60;2.65;;;;;;;;;;4224010;33;20083;-74
2023/05/12 06:05:53;;;;;;;5.47;2.83;;;;;;;;;;4224916;33;20053;-73
2023/05/12 06:08:20;;;;;;;7.65;2.97;;;;;;;;;;4225417;33;20054;-74
2023/05/12 06:10:46;;;;;;;8.93;2.75;;;;;;;;;;4222779;33;20405;-79
2023/05/12 06:13:12;;;;;;;7.50;4.05;;;;;;;;;;4247671;33;20057;-74
2023/05/12 06:15:38;;;;;;;2.72;2.37;;;;;;;;;;4253390;33;20122;-76
2023/05/12 06:18:05;;;;;;;3.83;2.08;;;;;;;;;;4237287;33;20054;-74
2023/05/12 06:20:31;;;;;;;4.60;2.80;;;;;;;;;;4239375;33;20107;-73
2023/05/12 06:22:57;;;;;;;5.78;2.72;;;;;;;;;;4236824;33;20050;-74
2023/05/12 06:25:24;;;;;;;5.20;2.80;;;;;;;;;;4255837;33;20734;-77
2023/05/12 06:27:51;;;;;;;5.78;2.55;;;;;;;;;;4253372;33;20472;-73
2023/05/12 06:30:17;;;;;;;7.75;3.03;;;;;;;;;;4275841;33;20059;-75
2023/05/12 06:32:44;;;;;;;9.55;2.58;;;;;;;;;;4281699;33;20137;-73
2023/05/12 06:35:10;;;;;;;13.60;2.80;;;;;;;;;;4279826;33;20230;-77
2023/05/12 06:37:37;;;;;;;10.75;3.12;;;;;;;;;;4280799;33;20061;-74
2023/05/12 06:40:03;;;;;;;11.63;2.20;;;;;;;;;;4262590;33;20050;-72
2023/05/12 06:42:30;;;;;;;8.25;2.80;;;;;;;;;;4265498;33;21023;-74
2023/05/12 06:44:56;;;;;;;8.70;2.65;;;;;;;;;;4265063;33;20050;-78
2023/05/12 06:47:22;;;;;;;11.25;3.92;;;;;;;;;;4264114;33;20816;-75
2023/05/12 06:49:48;;;;;;;7.22;2.40;;;;;;;;;;4286610;33;20078;-74
2023/05/12 06:52:16;;;;;;;4.00;2.42;;;;;;;;;;4285443;33;20196;-75
2023/05/12 06:54:42;;;;;;;6.28;2.83;;;;;;;;;;4323239;33;20078;-75
2023/05/12 06:57:08;;;;;;;5.10;2.17;;;;;;;;;;4313398;33;20045;-74
2023/05/12 06:59:34;;;;;;;5.57;3.28;;;;;;;;;;4310379;33;20041;-76
2023/05/12 07:02:01;;;;;;;5.93;2.33;;;;;;;;;;4324927;33;20553;-76
2023/05/12 07:04:28;;;;;;;3.03;2.33;;;;;;;;;;4324206;33;20036;-82
2023/05/12 07:06:55;;;;;;;4.75;2.37;;;;;;;;;;4285213;33;20475;-76
2023/05/12 07:09:21;;;;;;;13.62;2.90;;;;;;;;;;4270996;33;20078;-75
2023/05/12 07:11:48;;;;;;;4.10;2.45;;;;;;;;;;4282890;33;20069;-75
2023/05/12 07:14:14;;;;;;;4.85;2.37;;;;;;;;;;4279459;33;20050;-74
2023/05/12 07:16:41;;;;;;;12.50;3.92;;;;;;;;;;4279538;33;20234;-76
2023/05/12 07:19:08;;;;;;;2.12;1.92;;;;;;;;;;4279956;33;20049;-75
2023/05/12 07:21:35;;;;;;;11.98;2.60;;;;;;;;;;4273157;33;20083;-82
2023/05/12 07:24:01;;;;;;;6.95;2.45;;;;;;;;;;4251968;33;20038;-77
2023/05/12 07:26:28;;;;;;;13.82;1.92;;;;;;;;;;4203146;34;20077;-76
2023/05/12 07:28:54;;;;;;;7.12;2.03;;;;;;;;;;4194642;34;20047;-75
2023/05/12 07:31:21;;;;;;;18.20;9.18;;;;;;;;;;4193608;34;20061;-77
2023/05/12 07:33:47;;;;;;;9.75;5.55;;;;;;;;;;4193724;34;20130;-74
2023/05/12 07:36:13;;;;;;;10.70;2.70;;;;;;;;;;4183905;34;20447;-75
2023/05/12 07:38:39;;;;;;;11.45;1.90;;;;;;;;;;4185780;34;20081;-75
2023/05/12 07:41:06;;;;;;;5.28;2.40;;;;;;;;;;4192447;34;20044;-76
2023/05/12 07:43:32;;;;;;;8.32;2.12;;;;;;;;;;4199247;34;20441;-76
2023/05/12 07:46:00;;;;;;;4.78;2.15;;;;;;;;;;4193286;34;20047;-74
2023/05/12 07:48:25;;;;;;;8.88;2.25;;;;;;;;;;4198397;34;20047;-75
2023/05/12 07:50:52;;;;;;;4.30;2.17;;;;;;;;;;4197149;34;20055;-74
2023/05/12 07:53:18;;;;;;;8.52;2.60;;;;;;;;;;4196002;34;20373;-76
2023/05/12 07:55:44;;;;;;;7.80;1.70;;;;;;;;;;4223990;33;20047;-77
2023/05/12 07:58:11;;;;;;;7.45;1.90;;;;;;;;;;4232258;33;20453;-75
2023/05/12 08:00:37;;;;;;;15.60;2.25;;;;;;;;;;4231007;33;20453;-76
2023/05/12 08:03:06;;;;;;;10.00;2.80;;;;;;;;;;4233718;33;20053;-75
2023/05/12 08:05:32;;;;;;;11.18;1.95;;;;;;;;;;4245112;33;20058;-75
2023/05/12 08:07:58;;;;;;;7.53;1.73;;;;;;;;;;4278799;33;20041;-76
2023/05/12 08:10:28;;;;;;;8.07;1.70;;;;;;;;;;4291866;33;20463;-75
2023/05/12 08:12:54;;;;;;;6.85;2.08;;;;;;;;;;4298120;33;20083;-75
2023/05/12 08:15:20;;;;;;;19.10;2.40;;;;;;;;;;4298532;33;20110;-75
2023/05/12 08:17:47;;;;;;;16.20;3.05;;;;;;;;;;4296247;33;20074;-77
2023/05/12 08:20:13;;;;;;;4.57;2.00;;;;;;;;;;4296242;33;20063;-76
2023/05/12 08:22:39;;;;;;;6.53;2.17;;;;;;;;;;4296372;33;20076;-74
2023/05/12 08:25:06;;;;;;;18.65;1.85;;;;;;;;;;4296839;33;20041;-74
2023/05/12 08:27:32;;;;;;;7.55;1.90;;;;;;;;;;4283542;33;20037;-75
2023/05/12 08:29:58;;;;;;;12.35;3.00;;;;;;;;;;4286809;33;20048;-76
2023/05/12 08:32:24;;;;;;;4.10;1.60;;;;;;;;;;4295081;33;20045;-75
2023/05/12 08:34:50;;;;;;;7.50;1.98;;;;;;;;;;4294956;33;20075;-74
2023/05/12 08:37:16;;;;;;;9.90;2.65;;;;;;;;;;4288670;33;20100;-76
2023/05/12 08:39:43;;;;;;;8.82;1.98;;;;;;;;;;4285228;33;20041;-76
2023/05/12 08:42:24;;;;;;;4.60;2.10;;;;;;;;;;4286398;33;20060;-77
2023/05/12 08:44:51;;;;;;;;;;;;;;;;;;4280233;33;20106;-76
2023/05/12 08:47:17;;;;;;;3.28;1.87;;;;;;;;;;4307795;33;19948;-75
2023/05/12 08:49:44;;;;;;;7.70;1.87;;;;;;;;;;4317769;33;20068;-76
2023/05/12 08:52:11;;;;;;;19.87;1.83;;;;;;;;;;4314982;33;20553;-75
2023/05/12 08:54:38;;;;;;;9.20;1.87;;;;;;;;;;4310511;33;20467;-75
2023/05/12 08:57:10;;;;;;;10.63;1.48;;;;;;;;;;4308482;33;20577;-75
2023/05/12 08:59:38;;;;;;;12.75;3.17;;;;;;;;;;4309190;33;20332;-75
2023/05/12 09:02:04;;;;;;;2.53;1.90;;;;;;;;;;4318592;33;20029;-76
2023/05/12 09:04:31;;;;;;;10.25;1.83;;;;;;;;;;4323566;33;20064;-75
2023/05/12 09:06:58;;;;;;;11.23;1.75;;;;;;;;;;4322603;33;20055;-76
2023/05/12 09:09:26;;;;;;;9.20;1.90;;;;;;;;;;4323378;33;20062;-76
2023/05/12 09:11:55;;;;;;;18.12;2.00;;;;;;;;;;4293535;33;20062;-75
2023/05/12 09:14:24;;;;;;;3.30;1.45;;;;;;;;;;4277861;33;20046;-76
2023/05/12 09:16:52;;;;;;;5.22;1.60;;;;;;;;;;4265294;33;20026;-76
2023/05/12 09:19:20;;;;;;;5.25;1.60;;;;;;;;;;4239104;33;20054;-75
2023/05/12 09:21:46;;;;;;;7.15;1.77;;;;;;;;;;4237271;33;20072;-76
2023/05/12 09:24:12;;;;;;;9.07;1.58;;;;;;;;;;4235627;33;20050;-77
2023/05/12 09:26:44;;;;;;;9.55;2.83;;;;;;;;;;4236692;33;20042;-75
2023/05/12 09:29:11;;;;;;;2.92;1.67;;;;;;;;;;4236745;33;20095;-75
2023/05/12 09:31:50;;;;;;;6.90;1.77;;;;;;;;;;4237058;33;20035;-76
2023/05/12 09:34:17;;;;;;;13.10;1.92;;;;;;;;;;4230845;33;20054;-77
2023/05/12 09:36:44;;;;;;;8.13;1.67;;;;;;;;;;4221193;34;20069;-75
2023/05/12 09:39:11;;;;;;;5.85;1.62;;;;;;;;;;4221689;34;20078;-75
2023/05/12 09:41:39;;;;;;;13.48;1.80;;;;;;;;;;4235577;33;20060;-75
2023/05/12 09:44:06;;;;;;;7.28;1.90;;;;;;;;;;4221526;34;20072;-76
2023/05/12 09:46:32;;;;;;;4.35;1.73;;;;;;;;;;4223543;34;20067;-77
2023/05/12 09:48:59;;;;;;;7.57;2.60;;;;;;;;;;4208719;34;20061;-76
2023/05/12 09:51:25;;;;;;;7.57;1.50;;;;;;;;;;4209285;34;20054;-74
2023/05/12 09:53:52;;;;;;;5.10;2.53;;;;;;;;;;4209104;34;20087;-75
2023/05/12 09:56:18;;;;;;;4.60;1.50;;;;;;;;;;4205617;34;20065;-75
2023/05/12 09:58:46;;;;;;;4.68;1.20;;;;;;;;;;4208977;34;20464;-76
2023/05/12 10:01:16;;;;;;;4.78;1.45;;;;;;;;;;4216823;34;20039;-75
2023/05/12 10:03:56;;;;;;;18.27;1.67;;;;;;;;;;4208401;34;20047;-76
2023/05/12 10:06:35;;;;;;;8.60;2.20;;;;;;;;;;4207980;34;20150;-75
2023/05/12 10:09:02;;;;;;;10.02;1.40;;;;;;;;;;4223180;33;20080;-74
2023/05/12 10:11:28;;;;;;;6.60;1.52;;;;;;;;;;4232620;33;20042;-75
2023/05/12 10:13:55;;;;;;;4.85;1.80;;;;;;;;;;4263752;33;20045;-75
2023/05/12 10:16:22;;;;;;;7.15;1.83;;;;;;;;;;4281866;33;20079;-75
2023/05/12 10:18:49;;;;;;;6.12;1.70;;;;;;;;;;4281361;33;20071;-74
2023/05/12 10:21:15;;;;;;;2.22;1.58;;;;;;;;;;4249012;33;20068;-75
2023/05/12 10:23:43;;;;;;;9.73;1.80;;;;;;;;;;4260215;33;20038;-73
2023/05/12 10:26:10;;;;;;;8.32;1.75;;;;;;;;;;4259508;33;20068;-76
2023/05/12 10:28:36;;;;;;;4.32;1.48;;;;;;;;;;4262633;33;20062;-75
2023/05/12 10:31:06;;;;;;;1.73;1.45;;;;;;;;;;4257682;33;20033;-75
2023/05/12 10:33:32;;;;;;;3.47;1.45;;;;;;;;;;4258014;33;20080;-73
2023/05/12 10:35:58;;;;;;;5.40;1.58;;;;;;;;;;4260652;33;20064;-77
2023/05/12 10:38:35;;;;;;;10.30;1.73;;;;;;;;;;4260109;33;20088;-74
2023/05/12 10:41:02;;;;;;;5.00;1.60;;;;;;;;;;4264110;33;20026;-74
2023/05/12 10:43:37;;;;;;;4.20;1.25;;;;;;;;;;4263352;33;20067;-75
2023/05/12 10:46:06;;;;;;;6.47;1.17;;;;;;;;;;4262435;33;20436;-77
2023/05/12 10:48:32;;;;;;;7.68;2.10;;;;;;;;;;4264824;33;20054;-76
2023/05/12 10:51:08;;;;;;;4.03;1.65;;;;;;;;;;4264560;33;20037;-75
2023/05/12 10:53:36;;;;;;;11.75;1.80;;;;;;;;;;4246378;33;20064;-76
2023/05/12 10:56:04;;;;;;;1.60;1.50;;;;;;;;;;4251011;33;20056;-75
2023/05/12 10:58:30;;;;;;;22.85;9.18;;;;;;;;;;4256641;33;21077;-74
2023/05/12 11:01:04;;;;;;;6.40;3.00;;;;;;;;;;4420238;27;20074;-75
2023/05/12 11:03:30;;;;;;;7.07;4.22;;;;;;;;;;4278452;33;20045;-74
2023/05/12 11:05:57;;;;;;;7.68;2.47;;;;;;;;;;4281301;33;20083;-73
2023/05/12 11:08:23;;;;;;;3.53;1.67;;;;;;;;;;4243602;33;20057;-73
2023/05/12 11:10:50;;;;;;;4.22;1.83;;;;;;;;;;4246039;33;20093;-74
2023/05/12 11:13:17;;;;;;;8.68;1.77;;;;;;;;;;4237481;33;20061;-75
2023/05/12 11:15:44;;;;;;;10.38;2.00;;;;;;;;;;4240801;33;20432;-73
2023/05/12 11:18:11;;;;;;;15.13;1.73;;;;;;;;;;4244442;33;20068;-74
2023/05/12 11:20:37;;;;;;;10.88;1.90;;;;;;;;;;4250621;33;20160;-74
2023/05/12 11:23:04;;;;;;;5.82;1.70;;;;;;;;;;4248585;33;20039;-77
2023/05/12 11:25:30;;;;;;;9.18;4.40;;;;;;;;;;4268122;33;20042;-74
2023/05/12 11:27:57;;;;;;;5.40;2.25;;;;;;;;;;4278238;33;20491;-73
2023/05/12 11:30:23;;;;;;;3.83;1.65;;;;;;;;;;4248962;33;20493;-74
2023/05/12 11:32:58;;;;;;;5.10;1.77;;;;;;;;;;4252116;33;20107;-75
2023/05/12 11:35:28;;;;;;;1.83;1.70;;;;;;;;;;4248206;33;20042;-74
2023/05/12 11:37:54;;;;;;;2.37;1.52;;;;;;;;;;4251913;33;20068;-74
2023/05/12 11:40:21;;;;;;;8.70;1.77;;;;;;;;;;4275580;33;20419;-74
2023/05/12 11:42:50;;;;;;;2.78;1.70;;;;;;;;;;4280398;33;20433;-75
2023/05/12 11:45:22;;;;;;;6.10;1.70;;;;;;;;;;4279288;33;20046;-77
2023/05/12 11:47:49;;;;;;;5.57;1.65;;;;;;;;;;4278800;33;20309;-74
2023/05/12 11:50:22;;;;;;;13.98;2.22;;;;;;;;;;4279158;33;20041;-74
2023/05/12 11:52:49;;;;;;;1.67;1.58;;;;;;;;;;4279713;33;20038;-75
2023/05/12 11:55:18;;;;;;;2.47;1.70;;;;;;;;;;4278630;33;20038;-78
2023/05/12 11:57:53;;;;;;;4.30;1.65;;;;;;;;;;4266207;33;20054;-75
2023/05/12 12:00:25;;;;;;;7.10;2.05;;;;;;;;;;4266505;33;20045;-75
2023/05/12 12:02:52;;;;;;;4.00;1.35;;;;;;;;;;4293921;33;20049;-75
2023/05/12 12:05:19;;;;;;;9.38;2.00;;;;;;;;;;4292482;33;20714;-76
2023/05/12 12:07:46;;;;;;;3.47;1.83;;;;;;;;;;4288105;33;21009;-74
2023/05/12 12:10:12;;;;;;;5.30;1.62;;;;;;;;;;4293480;33;20049;-75
2023/05/12 12:12:38;;;;;;;8.18;2.05;;;;;;;;;;4294662;33;20045;-74
2023/05/12 12:15:05;;;;;;;14.43;2.42;;;;;;;;;;4294810;33;20075;-74
2023/05/12 12:17:31;;;;;;;8.95;2.08;;;;;;;;;;4292494;33;20041;-79
2023/05/12 12:19:57;;;;;;;3.90;2.45;;;;;;;;;;4294920;33;20072;-74
2023/05/12 12:22:23;;;;;;;13.43;1.90;;;;;;;;;;4295413;33;20460;-73
2023/05/12 12:24:49;;;;;;;15.02;2.20;;;;;;;;;;4293983;33;20098;-75
2023/05/12 12:27:16;;;;;;;6.05;1.83;;;;;;;;;;4293356;33;20100;-76
2023/05/12 12:29:41;;;;;;;4.85;1.83;;;;;;;;;;4283408;33;20074;-74
2023/05/12 12:32:09;;;;;;;8.85;1.87;;;;;;;;;;4296800;33;20045;-75
2023/05/12 12:34:35;;;;;;;3.60;1.98;;;;;;;;;;4295797;33;20059;-72
2023/05/12 12:37:01;;;;;;;3.72;1.87;;;;;;;;;;4270882;33;20401;-74
2023/05/12 12:39:27;;;;;;;3.50;1.70;;;;;;;;;;4279497;33;20451;-75
2023/05/12 12:41:54;;;;;;;5.12;1.52;;;;;;;;;;4276654;33;20063;-74
2023/05/12 12:44:20;;;;;;;2.67;1.62;;;;;;;;;;4279865;33;20109;-75
2023/05/12 12:46:47;;;;;;;2.03;1.80;;;;;;;;;;4279604;33;20308;-75
2023/05/12 12:49:13;;;;;;;2.70;1.67;;;;;;;;;;4251358;33;20060;-75
2023/05/12 12:51:39;;;;;;;6.57;1.87;;;;;;;;;;4250797;33;20042;-78
2023/05/12 12:54:06;;;;;;;13.55;2.45;;;;;;;;;;4249929;33;20046;-73
2023/05/12 12:56:32;;;;;;;14.55;2.33;;;;;;;;;;4251358;33;20072;-76
2023/05/12 12:58:58;;;;;;;8.23;2.17;;;;;;;;;;4251116;33;20046;-74
2023/05/12 13:01:24;;;;;;;7.85;1.98;;;;;;;;;;4248647;33;20058;-75
2023/05/12 13:03:50;;;;;;;4.50;1.50;;;;;;;;;;4250053;33;20101;-78
2023/05/12 13:06:17;;;;;;;14.55;1.90;;;;;;;;;;4248503;33;20066;-74
2023/05/12 13:08:43;;;;;;;7.37;1.70;;;;;;;;;;4231058;33;20577;-75
2023/05/12 13:11:09;;;;;;;4.28;2.65;;;;;;;;;;4232086;33;20050;-75
2023/05/12 13:13:36;;;;;;;6.32;1.92;;;;;;;;;;4235835;33;20038;-76
2023/05/12 13:16:03;;;;;;;6.72;1.60;;;;;;;;;;4231503;33;20060;-75
2023/05/12 13:18:29;;;;;;;7.07;1.55;;;;;;;;;;4233817;33;20454;-75
2023/05/12 13:20:55;;;;;;;3.30;1.52;;;;;;;;;;4251587;33;20069;-73
2023/05/12 13:23:21;;;;;;;3.80;2.12;;;;;;;;;;4258995;33;20392;-73
2023/05/12 13:25:48;;;;;;;3.22;1.62;;;;;;;;;;4256900;33;20400;-74
2023/05/12 13:28:14;;;;;;;8.00;2.37;;;;;;;;;;4253373;33;20045;-76
2023/05/12 13:30:42;;;;;;;5.40;1.60;;;;;;;;;;4257985;33;20054;-75
2023/05/12 13:33:08;;;;;;;4.22;2.28;;;;;;;;;;4269281;33;20494;-75
2023/05/12 13:35:35;;;;;;;5.37;2.05;;;;;;;;;;4263949;33;20053;-77
2023/05/12 13:38:01;;;;;;;6.43;1.40;;;;;;;;;;4263833;33;20045;-74
2023/05/12 13:40:27;;;;;;;3.22;1.70;;;;;;;;;;4287367;33;20080;-78
2023/05/12 13:42:53;;;;;;;6.22;1.80;;;;;;;;;;4295345;33;20494;-73
2023/05/12 13:45:19;;;;;;;8.73;1.70;;;;;;;;;;4303086;33;20057;-72
2023/05/12 13:47:45;;;;;;;4.78;1.73;;;;;;;;;;4300224;33;20064;-74
2023/05/12 13:50:11;;;;;;;4.90;1.70;;;;;;;;;;4298577;33;20450;-73
2023/05/12 13:52:38;;;;;;;8.20;1.60;;;;;;;;;;4293636;33;20037;-77
2023/05/12 13:55:04;;;;;;;9.27;2.08;;;;;;;;;;4294640;33;20075;-74
2023/05/12 13:57:30;;;;;;;5.82;1.62;;;;;;;;;;4303449;33;20186;-73
2023/05/12 13:59:57;;;;;;;4.60;1.62;;;;;;;;;;4301196;33;20055;-74
2023/05/12 14:02:23;;;;;;;6.03;1.80;;;;;;;;;;4291158;33;20037;-74
2023/05/12 14:04:49;;;;;;;9.60;2.55;;;;;;;;;;4279397;33;20050;-76
2023/05/12 14:07:18;;;;;;;4.55;1.87;;;;;;;;;;4279554;33;20041;-75
2023/05/12 14:09:44;;;;;;;5.03;1.58;;;;;;;;;;4281891;33;20070;-75
2023/05/12 14:12:10;;;;;;;1.50;1.40;;;;;;;;;;4281726;33;20076;-75
2023/05/12 14:14:36;;;;;;;5.47;1.55;;;;;;;;;;4278492;33;20038;-75
2023/05/12 14:17:02;;;;;;;9.40;2.80;;;;;;;;;;4279541;33;20104;-77
2023/05/12 14:19:29;;;;;;;5.95;2.08;;;;;;;;;;4282534;33;20200;-75
2023/05/12 14:21:55;;;;;;;2.95;1.40;;;;;;;;;;4281293;33;20029;-75
2023/05/12 14:24:21;;;;;;;9.02;1.65;;;;;;;;;;4282667;33;20059;-75
2023/05/12 14:26:48;;;;;;;7.43;2.00;;;;;;;;;;4282509;33;20380;-75
2023/05/12 14:29:14;;;;;;;4.20;1.80;;;;;;;;;;4280640;33;20041;-75
2023/05/12 14:31:40;;;;;;;6.40;1.60;;;;;;;;;;4282504;33;20464;-75
2023/05/12 14:34:08;;;;;;;7.07;2.20;;;;;;;;;;4302024;33;20082;-76
2023/05/12 14:36:33;;;;;;;3.00;1.60;;;;;;;;;;4311505;33;20070;-75
2023/05/12 14:39:07;;;;;;;7.87;1.90;;;;;;;;;;4309016;33;20496;-77
2023/05/12 14:41:40;;;;;;;1.92;1.50;;;;;;;;;;4311092;33;20207;-76
2023/05/12 14:44:06;;;;;;;4.95;1.70;;;;;;;;;;4311321;33;20078;-75
2023/05/12 14:46:33;;;;;;;10.30;1.85;;;;;;;;;;4313435;33;20044;-76
2023/05/12 14:48:59;;;;;;;5.97;1.70;;;;;;;;;;4313673;33;20082;-75
2023/05/12 14:51:25;;;;;;;4.12;1.35;;;;;;;;;;4311263;33;20606;-76
2023/05/12 14:53:52;;;;;;;8.40;1.85;;;;;;;;;;4313277;33;20132;-75
2023/05/12 14:56:18;;;;;;;5.78;1.58;;;;;;;;;;4309217;33;20385;-76
2023/05/12 14:58:44;;;;;;;9.95;1.50;;;;;;;;;;4311267;33;20044;-75
2023/05/12 15:01:11;;;;;;;12.95;1.70;;;;;;;;;;4309831;33;20067;-75
2023/05/12 15:03:37;;;;;;;6.78;1.65;;;;;;;;;;4309567;33;20106;-76
2023/05/12 15:06:05;;;;;;;14.13;1.77;;;;;;;;;;4311301;33;20857;-76
2023/05/12 15:08:31;;;;;;;7.07;1.98;;;;;;;;;;4311024;33;20036;-76
2023/05/12 15:10:57;;;;;;;11.00;3.20;;;;;;;;;;4311188;33;20117;-74
2023/05/12 15:13:24;;;;;;;12.30;2.05;;;;;;;;;;4307767;33;20041;-75
2023/05/12 15:15:50;;;;;;;6.62;1.87;;;;;;;;;;4311588;33;20075;-75
2023/05/12 15:18:16;;;;;;;6.85;1.55;;;;;;;;;;4311750;33;20462;-74
2023/05/12 15:20:42;;;;;;;2.47;1.70;;;;;;;;;;4313011;33;20067;-74
2023/05/12 15:23:08;;;;;;;1.65;1.55;;;;;;;;;;4321441;33;20042;-75
2023/05/12 15:25:37;;;;;;;11.20;1.65;;;;;;;;;;4320101;33;20052;-75
2023/05/12 15:28:03;;;;;;;6.18;1.75;;;;;;;;;;4311049;33;20303;-75
2023/05/12 15:30:29;;;;;;;11.23;1.70;;;;;;;;;;4310923;33;20111;-75
2023/05/12 15:32:55;;;;;;;6.18;1.95;;;;;;;;;;4306388;33;20075;-75
2023/05/12 15:35:21;;;;;;;1.60;1.50;;;;;;;;;;4296016;33;20108;-78
2023/05/12 15:37:47;;;;;;;4.18;1.60;;;;;;;;;;4294041;33;20088;-75
2023/05/12 15:40:14;;;;;;;1.70;1.60;;;;;;;;;;4296038;33;20172;-75
2023/05/12 15:42:40;;;;;;;5.18;2.12;;;;;;;;;;4294134;33;20068;-75
2023/05/12 15:45:07;;;;;;;5.28;2.22;;;;;;;;;;4286971;33;20053;-75
2023/05/12 15:47:34;;;;;;;5.57;1.70;;;;;;;;;;4282670;33;20049;-77
2023/05/12 15:50:00;;;;;;;5.82;1.90;;;;;;;;;;4282820;33;20053;-75
2023/05/12 15:52:26;;;;;;;8.90;2.45;;;;;;;;;;4282452;33;20064;-75
2023/05/12 15:54:52;;;;;;;2.85;1.55;;;;;;;;;;4264950;33;20456;-75
2023/05/12 15:57:19;;;;;;;3.47;1.50;;;;;;;;;;4265651;33;20422;-75
2023/05/12 15:59:45;;;;;;;8.75;1.87;;;;;;;;;;4264366;33;20041;-77
2023/05/12 16:02:11;;;;;;;5.28;2.05;;;;;;;;;;4266065;33;20076;-75
2023/05/12 16:04:38;;;;;;;7.22;2.05;;;;;;;;;;4265485;33;20033;-74
2023/05/12 16:07:04;;;;;;;1.80;1.70;;;;;;;;;;4265094;33;20061;-75
2023/05/12 16:09:36;;;;;;;10.15;1.92;;;;;;;;;;4251530;33;20047;-75
2023/05/12 16:12:03;;;;;;;3.25;2.17;;;;;;;;;;4250713;33;20054;-74
2023/05/12 16:14:29;;;;;;;4.30;2.03;;;;;;;;;;4252585;33;20038;-76
2023/05/12 16:16:55;;;;;;;4.65;1.75;;;;;;;;;;4266044;33;20357;-76
2023/05/12 16:19:21;;;;;;;2.80;1.67;;;;;;;;;;4251981;33;20034;-75
2023/05/12 16:21:47;;;;;;;14.15;1.75;;;;;;;;;;4250139;33;20097;-74
2023/05/12 16:24:13;;;;;;;6.35;1.77;;;;;;;;;;4249747;33;20105;-77
2023/05/12 16:26:40;;;;;;;10.73;2.37;;;;;;;;;;4265011;33;20260;-78
2023/05/12 16:29:06;;;;;;;5.18;1.85;;;;;;;;;;4280067;33;20148;-75
2023/05/12 16:31:32;;;;;;;7.30;2.08;;;;;;;;;;4280103;33;20049;-76
2023/05/12 16:33:58;;;;;;;7.87;3.22;;;;;;;;;;4277785;33;20067;-77
2023/05/12 16:36:24;;;;;;;4.62;1.75;;;;;;;;;;4260408;33;20066;-77
2023/05/12 16:38:50;;;;;;;4.62;1.83;;;;;;;;;;4251189;33;20092;-74